sensor_id;sensor_type;location;lat;lon;timestamp;P1;durP1;ratioP1;P2;durP2;ratioP2
20844;SDS011;10583;49.084;8.646;2022-10-16T00:01:14;1.20;;;1.20;;
20844;SDS011;10583;49.084;8.646;2022-10-16T00:03:43;1.10;;;1.10;;
20844;SDS011;10583;49.084;8.646;2022-10-16T00:06:10;1.00;;;1.00;;
20844;SDS011;10583;49.084;8.646;2022-10-16T00:08:38;1.03;;;1.03;;
20844;SDS011;10583;49.084;8.646;2022-10-16T00:11:07;1.50;;;1.50;;
20844;SDS011;10583;49.084;8.646;2022-10-16T00:13:35;0.93;;;0.93;;
20844;SDS011;10583;49.084;8.646;2022-10-16T00:16:04;1.10;;;1.10;;
20844;SDS011;10583;49.084;8.646;2022-10-16T00:18:32;1.03;;;1.03;;
20844;SDS011;10583;49.084;8.646;2022-10-16T00:21:01;1.10;;;1.10;;
20844;SDS011;10583;49.084;8.646;2022-10-16T00:23:29;0.77;;;0.77;;
20844;SDS011;10583;49.084;8.646;2022-10-16T00:25:56;0.87;;;0.87;;
20844;SDS011;10583;49.084;8.646;2022-10-16T00:28:24;1.03;;;1.03;;
20844;SDS011;10583;49.084;8.646;2022-10-16T00:30:52;1.20;;;1.20;;
20844;SDS011;10583;49.084;8.646;2022-10-16T00:33:19;1.40;;;1.40;;
20844;SDS011;10583;49.084;8.646;2022-10-16T00:35:46;1.27;;;1.27;;
20844;SDS011;10583;49.084;8.646;2022-10-16T00:38:13;1.53;;;1.53;;
20844;SDS011;10583;49.084;8.646;2022-10-16T00:40:40;1.67;;;1.67;;
20844;SDS011;10583;49.084;8.646;2022-10-16T00:43:09;1.60;;;1.60;;
20844;SDS011;10583;49.084;8.646;2022-10-16T00:45:40;1.40;;;1.40;;
20844;SDS011;10583;49.084;8.646;2022-10-16T00:48:09;1.80;;;1.80;;
20844;SDS011;10583;49.084;8.646;2022-10-16T00:50:39;1.60;;;1.60;;
20844;SDS011;10583;49.084;8.646;2022-10-16T00:53:08;1.40;;;1.40;;
20844;SDS011;10583;49.084;8.646;2022-10-16T00:55:36;1.47;;;1.47;;
20844;SDS011;10583;49.084;8.646;2022-10-16T00:58:02;1.23;;;1.23;;
20844;SDS011;10583;49.084;8.646;2022-10-16T01:00:29;1.20;;;1.20;;
20844;SDS011;10583;49.084;8.646;2022-10-16T01:02:58;1.30;;;1.30;;
20844;SDS011;10583;49.084;8.646;2022-10-16T01:05:28;1.10;;;1.10;;
20844;SDS011;10583;49.084;8.646;2022-10-16T01:08:01;1.00;;;1.00;;
20844;SDS011;10583;49.084;8.646;2022-10-16T01:10:35;1.20;;;1.20;;
20844;SDS011;10583;49.084;8.646;2022-10-16T01:13:05;1.13;;;1.13;;
20844;SDS011;10583;49.084;8.646;2022-10-16T01:15:34;0.73;;;0.73;;
20844;SDS011;10583;49.084;8.646;2022-10-16T01:18:05;1.10;;;1.10;;
20844;SDS011;10583;49.084;8.646;2022-10-16T01:20:37;0.70;;;0.70;;
20844;SDS011;10583;49.084;8.646;2022-10-16T01:23:10;0.80;;;0.80;;
20844;SDS011;10583;49.084;8.646;2022-10-16T01:25:50;0.90;;;0.90;;
20844;SDS011;10583;49.084;8.646;2022-10-16T01:28:32;1.10;;;1.10;;
20844;SDS011;10583;49.084;8.646;2022-10-16T01:31:05;0.90;;;0.90;;
20844;SDS011;10583;49.084;8.646;2022-10-16T01:33:34;0.90;;;0.90;;
20844;SDS011;10583;49.084;8.646;2022-10-16T01:36:06;0.50;;;0.50;;
20844;SDS011;10583;49.084;8.646;2022-10-16T01:38:37;0.90;;;0.90;;
20844;SDS011;10583;49.084;8.646;2022-10-16T01:41:06;0.93;;;0.93;;
20844;SDS011;10583;49.084;8.646;2022-10-16T01:43:38;0.90;;;0.90;;
20844;SDS011;10583;49.084;8.646;2022-10-16T01:46:08;1.10;;;1.10;;
20844;SDS011;10583;49.084;8.646;2022-10-16T01:48:36;1.40;;;1.40;;
20844;SDS011;10583;49.084;8.646;2022-10-16T01:51:04;1.13;;;1.13;;
20844;SDS011;10583;49.084;8.646;2022-10-16T01:53:33;1.10;;;1.10;;
20844;SDS011;10583;49.084;8.646;2022-10-16T01:56:00;1.10;;;1.10;;
20844;SDS011;10583;49.084;8.646;2022-10-16T01:58:32;1.27;;;1.27;;
20844;SDS011;10583;49.084;8.646;2022-10-16T02:01:03;1.10;;;1.10;;
20844;SDS011;10583;49.084;8.646;2022-10-16T02:03:33;1.00;;;1.00;;
20844;SDS011;10583;49.084;8.646;2022-10-16T02:06:02;1.10;;;1.10;;
20844;SDS011;10583;49.084;8.646;2022-10-16T02:08:29;1.10;;;1.10;;
20844;SDS011;10583;49.084;8.646;2022-10-16T02:10:57;1.10;;;1.10;;
20844;SDS011;10583;49.084;8.646;2022-10-16T02:13:28;0.93;;;0.93;;
20844;SDS011;10583;49.084;8.646;2022-10-16T02:15:57;1.00;;;1.00;;
20844;SDS011;10583;49.084;8.646;2022-10-16T02:18:31;1.10;;;1.10;;
20844;SDS011;10583;49.084;8.646;2022-10-16T02:20:59;0.97;;;0.97;;
20844;SDS011;10583;49.084;8.646;2022-10-16T02:23:30;1.20;;;1.20;;
20844;SDS011;10583;49.084;8.646;2022-10-16T02:26:02;1.00;;;1.00;;
20844;SDS011;10583;49.084;8.646;2022-10-16T02:28:32;1.30;;;1.30;;
20844;SDS011;10583;49.084;8.646;2022-10-16T02:31:07;1.10;;;1.10;;
20844;SDS011;10583;49.084;8.646;2022-10-16T02:33:39;1.10;;;1.10;;
20844;SDS011;10583;49.084;8.646;2022-10-16T02:36:08;1.07;;;1.07;;
20844;SDS011;10583;49.084;8.646;2022-10-16T02:38:35;1.00;;;1.00;;
20844;SDS011;10583;49.084;8.646;2022-10-16T02:41:03;1.20;;;1.20;;
20844;SDS011;10583;49.084;8.646;2022-10-16T02:43:30;1.37;;;1.37;;
20844;SDS011;10583;49.084;8.646;2022-10-16T02:45:58;1.00;;;1.00;;
20844;SDS011;10583;49.084;8.646;2022-10-16T02:48:25;0.90;;;0.90;;
20844;SDS011;10583;49.084;8.646;2022-10-16T02:50:53;1.07;;;1.07;;
20844;SDS011;10583;49.084;8.646;2022-10-16T02:53:20;1.30;;;1.30;;
20844;SDS011;10583;49.084;8.646;2022-10-16T02:55:46;1.00;;;1.00;;
20844;SDS011;10583;49.084;8.646;2022-10-16T02:58:13;1.20;;;1.20;;
20844;SDS011;10583;49.084;8.646;2022-10-16T03:00:40;0.90;;;0.90;;
20844;SDS011;10583;49.084;8.646;2022-10-16T03:03:07;0.73;;;0.73;;
20844;SDS011;10583;49.084;8.646;2022-10-16T03:05:34;0.80;;;0.80;;
20844;SDS011;10583;49.084;8.646;2022-10-16T03:08:02;0.97;;;0.97;;
20844;SDS011;10583;49.084;8.646;2022-10-16T03:10:29;1.20;;;1.20;;
20844;SDS011;10583;49.084;8.646;2022-10-16T03:12:55;1.00;;;1.00;;
20844;SDS011;10583;49.084;8.646;2022-10-16T03:15:22;1.10;;;1.10;;
20844;SDS011;10583;49.084;8.646;2022-10-16T03:17:49;0.90;;;0.90;;
20844;SDS011;10583;49.084;8.646;2022-10-16T03:20:15;0.93;;;0.93;;
20844;SDS011;10583;49.084;8.646;2022-10-16T03:22:42;1.00;;;1.00;;
20844;SDS011;10583;49.084;8.646;2022-10-16T03:25:10;0.87;;;0.87;;
20844;SDS011;10583;49.084;8.646;2022-10-16T03:27:37;0.80;;;0.80;;
20844;SDS011;10583;49.084;8.646;2022-10-16T03:30:04;1.20;;;1.20;;
20844;SDS011;10583;49.084;8.646;2022-10-16T03:32:31;0.90;;;0.90;;
20844;SDS011;10583;49.084;8.646;2022-10-16T03:34:58;0.90;;;0.90;;
20844;SDS011;10583;49.084;8.646;2022-10-16T03:37:24;0.70;;;0.70;;
20844;SDS011;10583;49.084;8.646;2022-10-16T03:39:51;1.20;;;1.20;;
20844;SDS011;10583;49.084;8.646;2022-10-16T03:42:19;1.10;;;1.10;;
20844;SDS011;10583;49.084;8.646;2022-10-16T03:44:46;1.50;;;1.50;;
20844;SDS011;10583;49.084;8.646;2022-10-16T03:47:13;1.00;;;1.00;;
20844;SDS011;10583;49.084;8.646;2022-10-16T03:49:40;1.40;;;1.40;;
20844;SDS011;10583;49.084;8.646;2022-10-16T03:52:06;1.23;;;1.23;;
20844;SDS011;10583;49.084;8.646;2022-10-16T03:54:33;1.50;;;1.50;;
20844;SDS011;10583;49.084;8.646;2022-10-16T03:57:00;1.40;;;1.40;;
20844;SDS011;10583;49.084;8.646;2022-10-16T03:59:28;1.27;;;1.27;;
20844;SDS011;10583;49.084;8.646;2022-10-16T04:01:54;1.00;;;1.00;;
20844;SDS011;10583;49.084;8.646;2022-10-16T04:04:21;1.00;;;1.00;;
20844;SDS011;10583;49.084;8.646;2022-10-16T04:06:48;1.10;;;1.10;;
20844;SDS011;10583;49.084;8.646;2022-10-16T04:09:14;1.00;;;1.00;;
20844;SDS011;10583;49.084;8.646;2022-10-16T04:11:41;0.80;;;0.80;;
20844;SDS011;10583;49.084;8.646;2022-10-16T04:14:08;1.00;;;1.00;;
20844;SDS011;10583;49.084;8.646;2022-10-16T04:16:36;0.90;;;0.90;;
20844;SDS011;10583;49.084;8.646;2022-10-16T04:19:03;1.00;;;1.00;;
20844;SDS011;10583;49.084;8.646;2022-10-16T04:21:29;0.83;;;0.83;;
20844;SDS011;10583;49.084;8.646;2022-10-16T04:23:56;1.17;;;1.17;;
20844;SDS011;10583;49.084;8.646;2022-10-16T04:26:23;0.93;;;0.93;;
20844;SDS011;10583;49.084;8.646;2022-10-16T04:28:49;1.00;;;1.00;;
20844;SDS011;10583;49.084;8.646;2022-10-16T04:31:16;0.70;;;0.70;;
20844;SDS011;10583;49.084;8.646;2022-10-16T04:33:44;0.80;;;0.80;;
20844;SDS011;10583;49.084;8.646;2022-10-16T04:36:11;0.83;;;0.83;;
20844;SDS011;10583;49.084;8.646;2022-10-16T04:38:38;1.00;;;1.00;;
20844;SDS011;10583;49.084;8.646;2022-10-16T04:41:05;1.00;;;1.00;;
20844;SDS011;10583;49.084;8.646;2022-10-16T04:43:33;1.70;;;1.70;;
20844;SDS011;10583;49.084;8.646;2022-10-16T04:46:00;1.20;;;1.20;;
20844;SDS011;10583;49.084;8.646;2022-10-16T04:48:29;1.10;;;1.10;;
20844;SDS011;10583;49.084;8.646;2022-10-16T04:50:57;1.00;;;1.00;;
20844;SDS011;10583;49.084;8.646;2022-10-16T04:53:25;0.80;;;0.80;;
20844;SDS011;10583;49.084;8.646;2022-10-16T04:55:51;0.97;;;0.97;;
20844;SDS011;10583;49.084;8.646;2022-10-16T04:58:18;0.90;;;0.90;;
20844;SDS011;10583;49.084;8.646;2022-10-16T05:00:45;0.97;;;0.97;;
20844;SDS011;10583;49.084;8.646;2022-10-16T05:03:12;1.10;;;1.10;;
20844;SDS011;10583;49.084;8.646;2022-10-16T05:05:41;0.90;;;0.90;;
20844;SDS011;10583;49.084;8.646;2022-10-16T05:08:10;1.40;;;1.40;;
20844;SDS011;10583;49.084;8.646;2022-10-16T05:10:39;0.90;;;0.90;;
20844;SDS011;10583;49.084;8.646;2022-10-16T05:13:07;1.00;;;1.00;;
20844;SDS011;10583;49.084;8.646;2022-10-16T05:15:34;1.60;;;1.60;;
20844;SDS011;10583;49.084;8.646;2022-10-16T05:18:01;1.20;;;1.20;;
20844;SDS011;10583;49.084;8.646;2022-10-16T05:20:28;1.10;;;1.10;;
20844;SDS011;10583;49.084;8.646;2022-10-16T05:22:55;1.00;;;1.00;;
20844;SDS011;10583;49.084;8.646;2022-10-16T05:25:23;0.90;;;0.90;;
20844;SDS011;10583;49.084;8.646;2022-10-16T05:27:49;1.10;;;1.10;;
20844;SDS011;10583;49.084;8.646;2022-10-16T05:30:16;1.10;;;1.10;;
20844;SDS011;10583;49.084;8.646;2022-10-16T05:32:45;1.17;;;1.17;;
20844;SDS011;10583;49.084;8.646;2022-10-16T05:35:13;1.27;;;1.27;;
20844;SDS011;10583;49.084;8.646;2022-10-16T05:37:40;1.27;;;1.27;;
20844;SDS011;10583;49.084;8.646;2022-10-16T05:40:07;1.40;;;1.40;;
20844;SDS011;10583;49.084;8.646;2022-10-16T05:42:36;1.10;;;1.10;;
20844;SDS011;10583;49.084;8.646;2022-10-16T05:45:03;1.10;;;1.10;;
20844;SDS011;10583;49.084;8.646;2022-10-16T05:47:31;1.30;;;1.30;;
20844;SDS011;10583;49.084;8.646;2022-10-16T05:49:58;1.30;;;1.30;;
20844;SDS011;10583;49.084;8.646;2022-10-16T05:52:26;0.90;;;0.90;;
20844;SDS011;10583;49.084;8.646;2022-10-16T05:54:52;0.97;;;0.97;;
20844;SDS011;10583;49.084;8.646;2022-10-16T05:57:19;0.93;;;0.93;;
20844;SDS011;10583;49.084;8.646;2022-10-16T05:59:47;1.23;;;1.23;;
20844;SDS011;10583;49.084;8.646;2022-10-16T06:02:16;0.90;;;0.90;;
20844;SDS011;10583;49.084;8.646;2022-10-16T06:04:42;0.80;;;0.80;;
20844;SDS011;10583;49.084;8.646;2022-10-16T06:07:09;2.30;;;2.30;;
20844;SDS011;10583;49.084;8.646;2022-10-16T06:09:36;5.30;;;5.30;;
20844;SDS011;10583;49.084;8.646;2022-10-16T06:12:03;3.30;;;3.30;;
20844;SDS011;10583;49.084;8.646;2022-10-16T06:14:29;3.97;;;3.97;;
20844;SDS011;10583;49.084;8.646;2022-10-16T06:16:57;6.17;;;6.17;;
20844;SDS011;10583;49.084;8.646;2022-10-16T06:19:24;2.70;;;2.70;;
20844;SDS011;10583;49.084;8.646;2022-10-16T06:21:51;2.40;;;2.40;;
20844;SDS011;10583;49.084;8.646;2022-10-16T06:24:18;2.50;;;2.50;;
20844;SDS011;10583;49.084;8.646;2022-10-16T06:26:44;1.97;;;1.97;;
20844;SDS011;10583;49.084;8.646;2022-10-16T06:29:11;1.73;;;1.73;;
20844;SDS011;10583;49.084;8.646;2022-10-16T06:31:38;1.80;;;1.80;;
20844;SDS011;10583;49.084;8.646;2022-10-16T06:34:08;1.80;;;1.80;;
20844;SDS011;10583;49.084;8.646;2022-10-16T06:36:36;2.00;;;2.00;;
20844;SDS011;10583;49.084;8.646;2022-10-16T06:39:03;1.70;;;1.70;;
20844;SDS011;10583;49.084;8.646;2022-10-16T06:41:32;1.40;;;1.40;;
20844;SDS011;10583;49.084;8.646;2022-10-16T06:43:59;1.40;;;1.40;;
20844;SDS011;10583;49.084;8.646;2022-10-16T06:46:26;1.30;;;1.30;;
20844;SDS011;10583;49.084;8.646;2022-10-16T06:48:53;1.37;;;1.37;;
20844;SDS011;10583;49.084;8.646;2022-10-16T06:51:22;1.63;;;1.63;;
20844;SDS011;10583;49.084;8.646;2022-10-16T06:53:50;2.30;;;2.30;;
20844;SDS011;10583;49.084;8.646;2022-10-16T06:56:18;1.73;;;1.73;;
20844;SDS011;10583;49.084;8.646;2022-10-16T06:58:47;1.90;;;1.90;;
20844;SDS011;10583;49.084;8.646;2022-10-16T07:01:14;1.97;;;1.97;;
20844;SDS011;10583;49.084;8.646;2022-10-16T07:03:43;1.83;;;1.83;;
20844;SDS011;10583;49.084;8.646;2022-10-16T07:06:12;1.47;;;1.47;;
20844;SDS011;10583;49.084;8.646;2022-10-16T07:08:43;1.80;;;1.80;;
20844;SDS011;10583;49.084;8.646;2022-10-16T07:11:11;1.90;;;1.90;;
20844;SDS011;10583;49.084;8.646;2022-10-16T07:13:40;2.27;;;2.27;;
20844;SDS011;10583;49.084;8.646;2022-10-16T07:16:08;1.77;;;1.77;;
20844;SDS011;10583;49.084;8.646;2022-10-16T07:18:37;2.20;;;2.20;;
20844;SDS011;10583;49.084;8.646;2022-10-16T07:21:05;2.20;;;2.20;;
20844;SDS011;10583;49.084;8.646;2022-10-16T07:23:33;2.33;;;2.33;;
20844;SDS011;10583;49.084;8.646;2022-10-16T07:26:01;2.27;;;2.27;;
20844;SDS011;10583;49.084;8.646;2022-10-16T07:28:28;2.30;;;2.30;;
20844;SDS011;10583;49.084;8.646;2022-10-16T07:30:59;2.60;;;2.60;;
20844;SDS011;10583;49.084;8.646;2022-10-16T07:33:26;2.30;;;2.30;;
20844;SDS011;10583;49.084;8.646;2022-10-16T07:35:54;1.90;;;1.90;;
20844;SDS011;10583;49.084;8.646;2022-10-16T07:38:21;1.50;;;1.50;;
20844;SDS011;10583;49.084;8.646;2022-10-16T07:40:55;1.90;;;1.90;;
20844;SDS011;10583;49.084;8.646;2022-10-16T07:43:24;1.40;;;1.40;;
20844;SDS011;10583;49.084;8.646;2022-10-16T07:45:51;1.60;;;1.60;;
20844;SDS011;10583;49.084;8.646;2022-10-16T07:48:18;1.50;;;1.50;;
20844;SDS011;10583;49.084;8.646;2022-10-16T07:50:46;1.83;;;1.83;;
20844;SDS011;10583;49.084;8.646;2022-10-16T07:53:13;1.60;;;1.60;;
20844;SDS011;10583;49.084;8.646;2022-10-16T07:55:40;1.70;;;1.70;;
20844;SDS011;10583;49.084;8.646;2022-10-16T07:58:06;1.70;;;1.70;;
20844;SDS011;10583;49.084;8.646;2022-10-16T08:00:35;1.23;;;1.23;;
20844;SDS011;10583;49.084;8.646;2022-10-16T08:03:02;1.40;;;1.40;;
20844;SDS011;10583;49.084;8.646;2022-10-16T08:05:29;1.40;;;1.40;;
20844;SDS011;10583;49.084;8.646;2022-10-16T08:07:58;1.30;;;1.30;;
20844;SDS011;10583;49.084;8.646;2022-10-16T08:10:25;1.50;;;1.50;;
20844;SDS011;10583;49.084;8.646;2022-10-16T08:12:54;1.40;;;1.40;;
20844;SDS011;10583;49.084;8.646;2022-10-16T08:15:21;1.50;;;1.50;;
20844;SDS011;10583;49.084;8.646;2022-10-16T08:17:55;1.40;;;1.40;;
20844;SDS011;10583;49.084;8.646;2022-10-16T08:20:23;1.20;;;1.20;;
20844;SDS011;10583;49.084;8.646;2022-10-16T08:22:50;1.13;;;1.13;;
20844;SDS011;10583;49.084;8.646;2022-10-16T08:25:17;1.37;;;1.37;;
20844;SDS011;10583;49.084;8.646;2022-10-16T08:27:43;1.57;;;1.57;;
20844;SDS011;10583;49.084;8.646;2022-10-16T08:30:10;1.33;;;1.33;;
20844;SDS011;10583;49.084;8.646;2022-10-16T08:32:37;1.50;;;1.50;;
20844;SDS011;10583;49.084;8.646;2022-10-16T08:35:05;1.33;;;1.33;;
20844;SDS011;10583;49.084;8.646;2022-10-16T08:37:33;1.43;;;1.43;;
20844;SDS011;10583;49.084;8.646;2022-10-16T08:39:59;1.23;;;1.23;;
20844;SDS011;10583;49.084;8.646;2022-10-16T08:42:32;1.30;;;1.30;;
20844;SDS011;10583;49.084;8.646;2022-10-16T08:45:12;1.30;;;1.30;;
20844;SDS011;10583;49.084;8.646;2022-10-16T08:47:53;1.40;;;1.40;;
20844;SDS011;10583;49.084;8.646;2022-10-16T08:50:28;1.30;;;1.30;;
20844;SDS011;10583;49.084;8.646;2022-10-16T08:52:57;1.20;;;1.20;;
20844;SDS011;10583;49.084;8.646;2022-10-16T08:55:28;1.20;;;1.20;;
20844;SDS011;10583;49.084;8.646;2022-10-16T08:58:00;1.40;;;1.40;;
20844;SDS011;10583;49.084;8.646;2022-10-16T09:00:27;1.10;;;1.10;;
20844;SDS011;10583;49.084;8.646;2022-10-16T09:02:56;1.40;;;1.40;;
20844;SDS011;10583;49.084;8.646;2022-10-16T09:05:36;1.17;;;1.17;;
20844;SDS011;10583;49.084;8.646;2022-10-16T09:08:25;1.20;;;1.20;;
20844;SDS011;10583;49.084;8.646;2022-10-16T09:10:58;1.00;;;1.00;;
20844;SDS011;10583;49.084;8.646;2022-10-16T09:13:32;1.00;;;1.00;;
20844;SDS011;10583;49.084;8.646;2022-10-16T09:16:10;1.20;;;1.20;;
20844;SDS011;10583;49.084;8.646;2022-10-16T09:18:44;1.20;;;1.20;;
20844;SDS011;10583;49.084;8.646;2022-10-16T09:21:19;1.00;;;1.00;;
20844;SDS011;10583;49.084;8.646;2022-10-16T09:23:50;1.00;;;1.00;;
20844;SDS011;10583;49.084;8.646;2022-10-16T09:26:17;1.10;;;1.10;;
20844;SDS011;10583;49.084;8.646;2022-10-16T09:28:44;1.17;;;1.17;;
20844;SDS011;10583;49.084;8.646;2022-10-16T09:31:13;1.43;;;1.43;;
20844;SDS011;10583;49.084;8.646;2022-10-16T09:33:43;1.00;;;1.00;;
20844;SDS011;10583;49.084;8.646;2022-10-16T09:36:11;1.23;;;1.23;;
20844;SDS011;10583;49.084;8.646;2022-10-16T09:38:40;1.10;;;1.10;;
20844;SDS011;10583;49.084;8.646;2022-10-16T09:41:12;1.40;;;1.40;;
20844;SDS011;10583;49.084;8.646;2022-10-16T09:43:46;1.20;;;1.20;;
20844;SDS011;10583;49.084;8.646;2022-10-16T09:46:22;1.10;;;1.10;;
20844;SDS011;10583;49.084;8.646;2022-10-16T09:48:53;1.70;;;1.70;;
20844;SDS011;10583;49.084;8.646;2022-10-16T09:51:23;1.13;;;1.13;;
20844;SDS011;10583;49.084;8.646;2022-10-16T09:53:55;0.93;;;0.93;;
20844;SDS011;10583;49.084;8.646;2022-10-16T09:56:25;1.40;;;1.40;;
20844;SDS011;10583;49.084;8.646;2022-10-16T09:58:53;1.30;;;1.30;;
20844;SDS011;10583;49.084;8.646;2022-10-16T10:01:21;1.20;;;1.20;;
20844;SDS011;10583;49.084;8.646;2022-10-16T10:03:55;1.17;;;1.17;;
20844;SDS011;10583;49.084;8.646;2022-10-16T10:06:26;1.25;;;1.25;;
20844;SDS011;10583;49.084;8.646;2022-10-16T10:08:57;1.33;;;1.33;;
20844;SDS011;10583;49.084;8.646;2022-10-16T10:11:42;1.15;;;1.15;;
20844;SDS011;10583;49.084;8.646;2022-10-16T10:14:22;1.00;;;1.00;;
20844;SDS011;10583;49.084;8.646;2022-10-16T10:16:50;1.20;;;1.20;;
20844;SDS011;10583;49.084;8.646;2022-10-16T10:19:19;1.10;;;1.10;;
20844;SDS011;10583;49.084;8.646;2022-10-16T10:21:47;1.00;;;1.00;;
20844;SDS011;10583;49.084;8.646;2022-10-16T10:24:17;1.10;;;1.10;;
20844;SDS011;10583;49.084;8.646;2022-10-16T10:26:46;1.33;;;1.33;;
20844;SDS011;10583;49.084;8.646;2022-10-16T10:29:28;1.10;;;1.10;;
20844;SDS011;10583;49.084;8.646;2022-10-16T10:32:04;1.30;;;1.30;;
20844;SDS011;10583;49.084;8.646;2022-10-16T10:34:45;1.00;;;1.00;;
20844;SDS011;10583;49.084;8.646;2022-10-16T10:37:28;0.98;;;0.98;;
20844;SDS011;10583;49.084;8.646;2022-10-16T10:40:11;1.05;;;1.05;;
20844;SDS011;10583;49.084;8.646;2022-10-16T10:42:49;1.25;;;1.25;;
20844;SDS011;10583;49.084;8.646;2022-10-16T10:45:24;1.33;;;1.33;;
20844;SDS011;10583;49.084;8.646;2022-10-16T10:47:59;1.20;;;1.20;;
20844;SDS011;10583;49.084;8.646;2022-10-16T10:50:39;1.45;;;1.45;;
20844;SDS011;10583;49.084;8.646;2022-10-16T10:53:17;1.40;;;1.40;;
20844;SDS011;10583;49.084;8.646;2022-10-16T10:55:53;1.02;;;1.02;;
20844;SDS011;10583;49.084;8.646;2022-10-16T10:58:40;1.20;;;1.20;;
20844;SDS011;10583;49.084;8.646;2022-10-16T11:01:22;1.20;;;1.20;;
20844;SDS011;10583;49.084;8.646;2022-10-16T11:03:59;1.02;;;1.02;;
20844;SDS011;10583;49.084;8.646;2022-10-16T11:06:45;0.80;;;0.80;;
20844;SDS011;10583;49.084;8.646;2022-10-16T11:09:16;1.02;;;1.02;;
20844;SDS011;10583;49.084;8.646;2022-10-16T11:11:49;1.15;;;1.15;;
20844;SDS011;10583;49.084;8.646;2022-10-16T11:14:19;1.00;;;1.00;;
20844;SDS011;10583;49.084;8.646;2022-10-16T11:16:49;1.02;;;1.02;;
20844;SDS011;10583;49.084;8.646;2022-10-16T11:19:22;1.10;;;1.10;;
20844;SDS011;10583;49.084;8.646;2022-10-16T11:22:00;1.27;;;1.27;;
20844;SDS011;10583;49.084;8.646;2022-10-16T11:24:35;1.10;;;1.10;;
20844;SDS011;10583;49.084;8.646;2022-10-16T11:27:15;0.95;;;0.95;;
20844;SDS011;10583;49.084;8.646;2022-10-16T11:29:47;1.13;;;1.13;;
20844;SDS011;10583;49.084;8.646;2022-10-16T11:32:21;1.10;;;1.10;;
20844;SDS011;10583;49.084;8.646;2022-10-16T11:34:52;1.27;;;1.27;;
20844;SDS011;10583;49.084;8.646;2022-10-16T11:37:23;1.00;;;1.00;;
20844;SDS011;10583;49.084;8.646;2022-10-16T11:39:56;1.30;;;1.30;;
20844;SDS011;10583;49.084;8.646;2022-10-16T11:42:34;1.50;;;1.50;;
20844;SDS011;10583;49.084;8.646;2022-10-16T11:45:08;1.20;;;1.20;;
20844;SDS011;10583;49.084;8.646;2022-10-16T11:47:50;1.30;;;1.30;;
20844;SDS011;10583;49.084;8.646;2022-10-16T11:50:23;1.30;;;1.30;;
20844;SDS011;10583;49.084;8.646;2022-10-16T11:52:55;1.10;;;1.10;;
20844;SDS011;10583;49.084;8.646;2022-10-16T11:55:27;1.02;;;1.02;;
20844;SDS011;10583;49.084;8.646;2022-10-16T11:58:00;1.30;;;1.30;;
20844;SDS011;10583;49.084;8.646;2022-10-16T12:00:34;1.17;;;1.17;;
20844;SDS011;10583;49.084;8.646;2022-10-16T12:03:09;1.13;;;1.13;;
20844;SDS011;10583;49.084;8.646;2022-10-16T12:05:49;1.10;;;1.10;;
20844;SDS011;10583;49.084;8.646;2022-10-16T12:08:23;1.38;;;1.38;;
20844;SDS011;10583;49.084;8.646;2022-10-16T12:10:50;1.10;;;1.10;;
20844;SDS011;10583;49.084;8.646;2022-10-16T12:13:29;1.00;;;1.00;;
20844;SDS011;10583;49.084;8.646;2022-10-16T12:16:04;1.38;;;1.38;;
20844;SDS011;10583;49.084;8.646;2022-10-16T12:18:32;1.33;;;1.33;;
20844;SDS011;10583;49.084;8.646;2022-10-16T12:20:59;1.15;;;1.15;;
20844;SDS011;10583;49.084;8.646;2022-10-16T12:23:30;1.33;;;1.33;;
20844;SDS011;10583;49.084;8.646;2022-10-16T12:25:58;0.90;;;0.90;;
20844;SDS011;10583;49.084;8.646;2022-10-16T12:28:27;1.42;;;1.42;;
20844;SDS011;10583;49.084;8.646;2022-10-16T12:30:58;1.27;;;1.27;;
20844;SDS011;10583;49.084;8.646;2022-10-16T12:33:28;1.52;;;1.52;;
20844;SDS011;10583;49.084;8.646;2022-10-16T12:35:56;1.50;;;1.50;;
20844;SDS011;10583;49.084;8.646;2022-10-16T12:38:26;1.30;;;1.30;;
20844;SDS011;10583;49.084;8.646;2022-10-16T12:40:55;1.65;;;1.65;;
20844;SDS011;10583;49.084;8.646;2022-10-16T12:43:26;1.20;;;1.20;;
20844;SDS011;10583;49.084;8.646;2022-10-16T12:46:03;1.42;;;1.42;;
20844;SDS011;10583;49.084;8.646;2022-10-16T12:48:46;1.35;;;1.35;;
20844;SDS011;10583;49.084;8.646;2022-10-16T12:51:21;1.27;;;1.27;;
20844;SDS011;10583;49.084;8.646;2022-10-16T12:53:57;1.70;;;1.70;;
20844;SDS011;10583;49.084;8.646;2022-10-16T12:56:26;1.10;;;1.10;;
20844;SDS011;10583;49.084;8.646;2022-10-16T12:59:04;1.17;;;1.17;;
20844;SDS011;10583;49.084;8.646;2022-10-16T13:01:42;1.25;;;1.25;;
20844;SDS011;10583;49.084;8.646;2022-10-16T13:04:29;1.30;;;1.30;;
20844;SDS011;10583;49.084;8.646;2022-10-16T13:07:13;1.50;;;1.50;;
20844;SDS011;10583;49.084;8.646;2022-10-16T13:10:00;1.38;;;1.38;;
20844;SDS011;10583;49.084;8.646;2022-10-16T13:12:40;1.05;;;1.05;;
20844;SDS011;10583;49.084;8.646;2022-10-16T13:15:27;1.45;;;1.45;;
20844;SDS011;10583;49.084;8.646;2022-10-16T13:18:04;1.25;;;1.25;;
20844;SDS011;10583;49.084;8.646;2022-10-16T13:20:41;1.30;;;1.30;;
20844;SDS011;10583;49.084;8.646;2022-10-16T13:23:21;1.40;;;1.40;;
20844;SDS011;10583;49.084;8.646;2022-10-16T13:25:57;1.40;;;1.40;;
20844;SDS011;10583;49.084;8.646;2022-10-16T13:28:34;1.30;;;1.30;;
20844;SDS011;10583;49.084;8.646;2022-10-16T13:31:05;1.23;;;1.23;;
20844;SDS011;10583;49.084;8.646;2022-10-16T13:33:39;1.40;;;1.40;;
20844;SDS011;10583;49.084;8.646;2022-10-16T13:36:17;1.27;;;1.27;;
20844;SDS011;10583;49.084;8.646;2022-10-16T13:38:46;1.63;;;1.63;;
20844;SDS011;10583;49.084;8.646;2022-10-16T13:41:14;1.27;;;1.27;;
20844;SDS011;10583;49.084;8.646;2022-10-16T13:43:42;1.50;;;1.50;;
20844;SDS011;10583;49.084;8.646;2022-10-16T13:46:13;1.35;;;1.35;;
20844;SDS011;10583;49.084;8.646;2022-10-16T13:48:41;1.30;;;1.30;;
20844;SDS011;10583;49.084;8.646;2022-10-16T13:51:11;1.23;;;1.23;;
20844;SDS011;10583;49.084;8.646;2022-10-16T13:53:39;1.30;;;1.30;;
20844;SDS011;10583;49.084;8.646;2022-10-16T13:56:07;1.50;;;1.50;;
20844;SDS011;10583;49.084;8.646;2022-10-16T13:58:37;1.30;;;1.30;;
20844;SDS011;10583;49.084;8.646;2022-10-16T14:01:04;1.50;;;1.50;;
20844;SDS011;10583;49.084;8.646;2022-10-16T14:03:41;1.40;;;1.40;;
20844;SDS011;10583;49.084;8.646;2022-10-16T14:06:11;1.30;;;1.30;;
20844;SDS011;10583;49.084;8.646;2022-10-16T14:08:41;1.25;;;1.25;;
20844;SDS011;10583;49.084;8.646;2022-10-16T14:11:09;1.60;;;1.60;;
20844;SDS011;10583;49.084;8.646;2022-10-16T14:13:37;1.25;;;1.25;;
20844;SDS011;10583;49.084;8.646;2022-10-16T14:16:06;1.30;;;1.30;;
20844;SDS011;10583;49.084;8.646;2022-10-16T14:18:34;1.77;;;1.77;;
20844;SDS011;10583;49.084;8.646;2022-10-16T14:21:06;1.60;;;1.60;;
20844;SDS011;10583;49.084;8.646;2022-10-16T14:23:41;1.50;;;1.50;;
20844;SDS011;10583;49.084;8.646;2022-10-16T14:26:12;1.30;;;1.30;;
20844;SDS011;10583;49.084;8.646;2022-10-16T14:28:41;1.60;;;1.60;;
20844;SDS011;10583;49.084;8.646;2022-10-16T14:33:58;1.50;;;1.50;;
20844;SDS011;10583;49.084;8.646;2022-10-16T14:36:27;2.03;;;2.03;;
20844;SDS011;10583;49.084;8.646;2022-10-16T14:38:57;1.85;;;1.85;;
20844;SDS011;10583;49.084;8.646;2022-10-16T14:41:27;2.08;;;2.08;;
20844;SDS011;10583;49.084;8.646;2022-10-16T14:43:55;1.60;;;1.60;;
20844;SDS011;10583;49.084;8.646;2022-10-16T14:46:28;1.60;;;1.60;;
20844;SDS011;10583;49.084;8.646;2022-10-16T14:48:59;1.90;;;1.90;;
20844;SDS011;10583;49.084;8.646;2022-10-16T14:51:30;1.52;;;1.52;;
20844;SDS011;10583;49.084;8.646;2022-10-16T14:53:57;1.40;;;1.40;;
20844;SDS011;10583;49.084;8.646;2022-10-16T14:56:24;1.33;;;1.33;;
20844;SDS011;10583;49.084;8.646;2022-10-16T14:58:55;2.05;;;2.05;;
20844;SDS011;10583;49.084;8.646;2022-10-16T15:01:22;1.70;;;1.70;;
20844;SDS011;10583;49.084;8.646;2022-10-16T15:03:49;1.70;;;1.70;;
20844;SDS011;10583;49.084;8.646;2022-10-16T15:06:17;1.52;;;1.52;;
20844;SDS011;10583;49.084;8.646;2022-10-16T15:08:45;1.67;;;1.67;;